Time;durP1;ratioP1;P1;durP2;ratioP2;P2;SDS_P1;SDS_P2;PMS_P1;PMS_P2;Temp;Humidity;BMP_temperature;BMP_pressure;BME280_temperature;BME280_humidity;BME280_pressure;Samples;Min_cycle;Max_cycle;Signal;HPM_P1;HPM_P2
2023/08/12 00:01:24;;;;;;;;;;;;;;;20.94;100.00;101712.63;10456686;28;19925;-67
2023/08/12 00:06:28;;;;;;;;;;;;;;;21.16;100.00;101713.41;10457127;28;19932;-67
2023/08/12 00:11:30;;;;;;;;;;;;;;;21.10;100.00;101703.31;10438978;28;19925;-66
2023/08/12 00:16:32;;;;;;;;;;;;;;;21.19;100.00;101701.66;10456352;28;19929;-67
2023/08/12 00:21:34;;;;;;;;;;;;;;;21.18;100.00;101699.97;10456408;28;20021;-66
2023/08/12 00:26:37;;;;;;;;;;;;;;;21.18;100.00;101689.31;10439278;28;20012;-67
2023/08/12 00:31:39;;;;;;;;;;;;;;;21.10;100.00;101684.69;10456158;28;19925;-66
2023/08/12 00:36:41;;;;;;;;;;;;;;;21.14;100.00;101692.25;10456017;28;20284;-66
2023/08/12 00:41:44;;;;;;;;;;;;;;;21.14;100.00;101694.06;10456949;28;19931;-66
2023/08/12 00:46:46;;;;;;;;;;;;;;;21.12;100.00;101682.72;10446634;28;19924;-66
2023/08/12 00:51:49;;;;;;;;;;;;;;;21.04;100.00;101678.06;10464226;28;19932;-66
2023/08/12 00:56:51;;;;;;;;;;;;;;;21.10;100.00;101674.88;10463369;28;20016;-66
2023/08/12 01:01:55;;;;;;;;;;;;;;;21.14;100.00;101667.44;10446467;28;19924;-66
2023/08/12 01:06:57;;;;;;;;;;;;;;;21.14;100.00;101648.81;10462911;28;19990;-66
2023/08/12 01:12:03;;;;;;;;;;;;;;;21.26;100.00;101642.38;10463401;28;19925;-66
2023/08/12 01:17:06;;;;;;;;;;;;;;;21.13;100.00;101644.44;10463232;28;19924;-66
2023/08/12 01:22:09;;;;;;;;;;;;;;;21.09;100.00;101648.38;10444711;28;20292;-67
2023/08/12 01:27:12;;;;;;;;;;;;;;;21.24;100.00;101635.53;10461838;28;19929;-67
2023/08/12 01:32:19;;;;;;;;;;;;;;;21.34;100.00;101641.69;10462635;28;19932;-67
2023/08/12 01:37:23;;;;;;;;;;;;;;;21.35;100.00;101627.41;10444190;28;19935;-67
2023/08/12 01:42:25;;;;;;;;;;;;;;;20.99;100.00;101616.41;10444511;28;19925;-67
2023/08/12 01:47:28;;;;;;;;;;;;;;;20.77;100.00;101625.44;10462178;28;19925;-67
2023/08/12 01:52:30;;;;;;;;;;;;;;;21.08;100.00;101615.59;10461891;28;19968;-66
2023/08/12 01:57:32;;;;;;;;;;;;;;;21.17;100.00;101600.63;10442335;28;20384;-67
2023/08/12 02:02:35;;;;;;;;;;;;;;;21.22;100.00;101603.69;10460784;28;20437;-66
2023/08/12 02:07:37;;;;;;;;;;;;;;;21.25;100.00;101590.13;10461383;28;19924;-66
2023/08/12 02:12:40;;;;;;;;;;;;;;;21.27;100.00;101600.63;10460457;28;20364;-66
2023/08/12 02:17:42;;;;;;;;;;;;;;;21.25;100.00;101597.25;10461325;28;20012;-66
2023/08/12 02:22:44;;;;;;;;;;;;;;;21.31;100.00;101592.19;10443527;28;19925;-66
2023/08/12 02:27:46;;;;;;;;;;;;;;;21.31;100.00;101594.03;10459934;28;19983;-66
2023/08/12 02:32:49;;;;;;;;;;;;;;;21.17;100.00;101589.97;10460253;28;19925;-66
2023/08/12 02:37:52;;;;;;;;;;;;;;;21.39;100.00;101582.69;10460082;28;19935;-66
2023/08/12 02:42:54;;;;;;;;;;;;;;;21.19;100.00;101574.69;10442004;28;20003;-66
2023/08/12 02:47:56;;;;;;;;;;;;;;;21.28;100.00;101576.53;10458918;28;20283;-66
2023/08/12 02:52:58;;;;;;;;;;;;;;;21.11;100.00;101567.38;10459921;28;20027;-66
2023/08/12 02:58:01;;;;;;;;;;;;;;;20.99;100.00;101560.50;10459255;28;19925;-66
2023/08/12 03:03:04;;;;;;;;;;;;;;;21.03;100.00;101561.94;10458469;28;20276;-66
2023/08/12 03:08:06;;;;;;;;;;;;;;;21.17;100.00;101560.66;10458436;28;19924;-66
2023/08/12 03:13:08;;;;;;;;;;;;;;;21.15;100.00;101557.31;10458719;28;19925;-66
2023/08/12 03:18:11;;;;;;;;;;;;;;;21.12;100.00;101552.25;10458536;28;19968;-66
2023/08/12 03:23:13;;;;;;;;;;;;;;;21.19;100.00;101536.56;10458314;28;20012;-66
2023/08/12 03:28:16;;;;;;;;;;;;;;;21.20;100.00;101533.78;10457353;28;19931;-66
2023/08/12 03:33:18;;;;;;;;;;;;;;;20.99;100.00;101525.06;10457390;28;19925;-66
2023/08/12 03:38:20;;;;;;;;;;;;;;;21.13;100.00;101527.31;10440720;28;20008;-66
2023/08/12 03:43:23;;;;;;;;;;;;;;;21.15;100.00;101518.22;10457714;28;19970;-66
2023/08/12 03:48:25;;;;;;;;;;;;;;;21.05;100.00;101506.72;10456876;28;20463;-66
2023/08/12 03:53:28;;;;;;;;;;;;;;;20.75;100.00;101516.47;10456816;28;20286;-66
2023/08/12 03:58:30;;;;;;;;;;;;;;;20.96;100.00;101513.72;10457385;28;19925;-66
2023/08/12 04:03:32;;;;;;;;;;;;;;;20.91;100.00;101507.97;10456672;28;20442;-66
2023/08/12 04:08:34;;;;;;;;;;;;;;;21.08;100.00;101509.09;10457517;28;19978;-66
2023/08/12 04:13:37;;;;;;;;;;;;;;;20.94;100.00;101494.38;10456472;28;20273;-66
2023/08/12 04:18:39;;;;;;;;;;;;;;;20.84;100.00;101508.66;10460757;28;20004;-67
2023/08/12 04:23:41;;;;;;;;;;;;;;;20.98;100.00;101500.28;10464661;28;20459;-67
2023/08/12 04:28:43;;;;;;;;;;;;;;;21.04;100.00;101485.56;10464687;28;19925;-67
2023/08/12 04:33:46;;;;;;;;;;;;;;;20.98;100.00;101478.97;10464287;28;20290;-67
2023/08/12 04:38:48;;;;;;;;;;;;;;;21.14;100.00;101476.56;10464108;28;19925;-66
2023/08/12 04:43:50;;;;;;;;;;;;;;;21.38;100.00;101463.81;10463915;28;20447;-66
2023/08/12 04:48:52;;;;;;;;;;;;;;;21.32;100.00;101457.25;10463920;28;20284;-65
2023/08/12 04:53:55;;;;;;;;;;;;;;;21.36;100.00;101453.28;10464137;28;20374;-66
2023/08/12 04:58:57;;;;;;;;;;;;;;;21.02;100.00;101464.41;10463981;28;19925;-66
2023/08/12 05:03:59;;;;;;;;;;;;;;;20.99;100.00;101461.19;10463795;28;20331;-66
2023/08/12 05:09:02;;;;;;;;;;;;;;;20.83;100.00;101448.41;10463324;28;20004;-66
2023/08/12 05:14:04;;;;;;;;;;;;;;;21.14;100.00;101449.13;10462769;28;19932;-66
2023/08/12 05:19:07;;;;;;;;;;;;;;;20.90;100.00;101453.06;10462450;28;20390;-66
2023/08/12 05:24:11;;;;;;;;;;;;;;;20.96;100.00;101444.50;10462340;28;19925;-66
2023/08/12 05:29:13;;;;;;;;;;;;;;;20.91;100.00;101429.94;10461976;28;19924;-66
2023/08/12 05:34:15;;;;;;;;;;;;;;;20.68;100.00;101429.34;10444325;28;19924;-66
2023/08/12 05:39:18;;;;;;;;;;;;;;;20.96;100.00;101443.66;10461757;28;20386;-65
2023/08/12 05:44:20;;;;;;;;;;;;;;;20.74;100.00;101445.59;10444598;28;19931;-66
2023/08/12 05:49:22;;;;;;;;;;;;;;;20.60;100.00;101430.88;10444216;28;19935;-66
2023/08/12 05:54:24;;;;;;;;;;;;;;;20.58;100.00;101442.63;10461276;28;20291;-67
2023/08/12 05:59:27;;;;;;;;;;;;;;;20.41;100.00;101434.34;10461695;28;19925;-67
2023/08/12 06:04:29;;;;;;;;;;;;;;;20.70;100.00;101446.88;10461425;28;19925;-67
2023/08/12 06:09:31;;;;;;;;;;;;;;;20.47;100.00;101422.31;10460570;28;20356;-66
2023/08/12 06:14:34;;;;;;;;;;;;;;;20.48;100.00;101437.28;10461121;28;19925;-66
2023/08/12 06:19:36;;;;;;;;;;;;;;;20.26;100.00;101433.06;10442742;28;20291;-67
2023/08/12 06:24:38;;;;;;;;;;;;;;;20.31;100.00;101430.81;10460712;28;19925;-66
2023/08/12 06:29:40;;;;;;;;;;;;;;;20.34;100.00;101421.72;10459850;28;19931;-67
2023/08/12 06:34:43;;;;;;;;;;;;;;;20.51;100.00;101413.09;10459809;28;20320;-67
2023/08/12 06:39:45;;;;;;;;;;;;;;;20.53;100.00;101413.78;10441641;28;19931;-67
2023/08/12 06:44:53;;;;;;;;;;;;;;;20.59;100.00;101407.06;10459240;28;20287;-67
2023/08/12 06:49:55;;;;;;;;;;;;;;;20.74;100.00;101400.38;10459020;28;20387;-67
2023/08/12 06:54:58;;;;;;;;;;;;;;;20.92;100.00;101394.34;10459514;28;19967;-67
2023/08/12 07:00:00;;;;;;;;;;;;;;;20.45;100.00;101405.66;10458675;28;19924;-67
2023/08/12 07:05:02;;;;;;;;;;;;;;;20.75;100.00;101402.06;10458499;28;20406;-67
2023/08/12 07:10:06;;;;;;;;;;;;;;;20.48;100.00;101394.75;10441229;28;19931;-67
2023/08/12 07:15:10;;;;;;;;;;;;;;;20.60;100.00;101396.28;10441453;28;19970;-67
2023/08/12 07:20:12;;;;;;;;;;;;;;;20.32;100.00;101395.25;10458586;28;19929;-67
2023/08/12 07:25:15;;;;;;;;;;;;;;;20.10;100.00;101392.84;10457724;28;19931;-66
2023/08/12 07:30:17;;;;;;;;;;;;;;;20.38;100.00;101386.75;10457871;28;19924;-66
2023/08/12 07:35:19;;;;;;;;;;;;;;;20.52;100.00;101374.03;10457406;28;20004;-66
2023/08/12 07:40:21;;;;;;;;;;;;;;;20.57;100.00;101372.59;10457290;28;20007;-66
2023/08/12 07:45:24;;;;;;;;;;;;;;;20.79;100.00;101365.38;10457807;28;19931;-66
2023/08/12 07:50:26;;;;;;;;;;;;;;;20.35;100.00;101363.09;10457598;28;19931;-66
2023/08/12 07:55:29;;;;;;;;;;;;;;;21.09;100.00;101355.53;10456894;28;19925;-66
2023/08/12 08:00:32;;;;;;;;;;;;;;;21.12;100.00;101355.25;10456871;28;19967;-66
2023/08/12 08:05:34;;;;;;;;;;;;;;;21.19;100.00;101350.19;10457633;28;19924;-66
2023/08/12 08:10:37;;;;;;;;;;;;;;;20.96;100.00;101351.34;10439587;28;19932;-66
2023/08/12 08:15:39;;;;;;;;;;;;;;;21.08;100.00;101349.38;10457193;28;20007;-66
2023/08/12 08:20:42;;;;;;;;;;;;;;;20.68;100.00;101341.56;10438832;28;19928;-66
2023/08/12 08:25:47;;;;;;;;;;;;;;;21.17;100.00;101333.53;10439059;28;19979;-66
2023/08/12 08:30:49;;;;;;;;;;;;;;;21.22;100.00;101341.91;10456360;28;19924;-67
2023/08/12 08:35:51;;;;;;;;;;;;;;;21.23;100.00;101344.44;10456898;28;19925;-67
2023/08/12 08:40:54;;;;;;;;;;;;;;;21.28;100.00;101343.97;10456614;28;19925;-66
2023/08/12 08:45:56;;;;;;;;;;;;;;;21.30;100.00;101350.00;10439022;28;19924;-66
2023/08/12 08:50:59;;;;;;;;;;;;;;;21.26;100.00;101340.63;10456009;28;20391;-66
2023/08/12 08:56:01;;;;;;;;;;;;;;;21.36;100.00;101351.25;10439040;28;19924;-66
2023/08/12 09:01:04;;;;;;;;;;;;;;;21.34;100.00;101343.41;10437962;28;20388;-66
2023/08/12 09:06:06;;;;;;;;;;;;;;;21.32;100.00;101354.22;10443990;28;19931;-66
2023/08/12 09:11:08;;;;;;;;;;;;;;;21.54;100.00;101356.69;10429570;28;19932;-66
2023/08/12 09:16:11;;;;;;;;;;;;;;;21.68;100.00;101359.69;10445157;28;20355;-66
2023/08/12 09:21:15;;;;;;;;;;;;;;;21.67;100.00;101357.19;10445710;28;19925;-67
2023/08/12 09:26:18;;;;;;;;;;;;;;;21.73;100.00;101358.44;10463239;28;20016;-67
2023/08/12 09:31:21;;;;;;;;;;;;;;;21.79;100.00;101369.34;10444852;28;20004;-66
2023/08/12 09:36:24;;;;;;;;;;;;;;;21.38;100.00;101379.41;10445004;28;19925;-66
2023/08/12 09:41:26;;;;;;;;;;;;;;;21.31;100.00;101376.47;10462732;28;19971;-66
2023/08/12 09:46:28;;;;;;;;;;;;;;;21.59;100.00;101386.41;10444587;28;19925;-66
2023/08/12 09:51:34;;;;;;;;;;;;;;;22.37;100.00;101375.34;10444604;28;19925;-66
2023/08/12 09:56:37;;;;;;;;;;;;;;;22.14;100.00;101386.41;10443899;28;19924;-66
2023/08/12 10:01:41;;;;;;;;;;;;;;;21.84;100.00;101391.06;10444166;28;19959;-66
2023/08/12 10:06:44;;;;;;;;;;;;;;;21.71;100.00;101374.56;10443438;28;20338;-66
2023/08/12 10:11:46;;;;;;;;;;;;;;;22.65;100.00;101381.47;10443831;28;19931;-66
2023/08/12 10:16:49;;;;;;;;;;;;;;;24.20;100.00;101356.63;10459479;28;19925;-66
2023/08/12 10:21:53;;;;;;;;;;;;;;;24.52;100.00;101367.56;10442779;28;20439;-66
2023/08/12 10:26:55;;;;;;;;;;;;;;;24.47;100.00;101368.06;10460132;28;20000;-66
2023/08/12 10:31:58;;;;;;;;;;;;;;;24.15;100.00;101371.53;10442315;28;20015;-66
2023/08/12 10:37:01;;;;;;;;;;;;;;;23.22;100.00;101391.78;10459752;28;20368;-66
2023/08/12 10:42:05;;;;;;;;;;;;;;;22.79;100.00;101394.25;10449836;22;19964;-65
2023/08/12 10:47:07;;;;;;;;;;;;;;;22.53;100.00;101410.19;10459858;28;20024;-65
2023/08/12 10:52:39;;;;;;;;;;;;;;;22.11;100.00;101405.38;10441422;28;19948;-65
2023/08/12 10:57:42;;;;;;;;;;;;;;;22.95;100.00;101392.72;10438367;28;20318;-66
2023/08/12 11:02:44;;;;;;;;;;;;;;;22.65;100.00;101397.47;10459250;28;20019;-66
2023/08/12 11:08:03;;;;;;;;;;;;;;;22.98;100.00;101395.91;10458352;28;19951;-65
2023/08/12 11:13:06;;;;;;;;;;;;;;;25.75;99.76;101387.00;10458357;28;19924;-65
2023/08/12 11:18:08;;;;;;;;;;;;;;;23.89;99.97;101393.84;10441091;28;19931;-66
2023/08/12 11:23:11;;;;;;;;;;;;;;;23.64;97.52;101391.03;10440205;28;20012;-66
2023/08/12 11:28:13;;;;;;;;;;;;;;;23.49;100.00;101400.63;10440333;28;19925;-66
2023/08/12 11:33:18;;;;;;;;;;;;;;;24.67;94.58;101387.34;10458184;28;19931;-66
2023/08/12 11:38:20;;;;;;;;;;;;;;;25.63;89.95;101375.00;10457430;28;19925;-66
2023/08/12 11:43:22;;;;;;;;;;;;;;;25.91;80.94;101382.63;10457087;28;20375;-66
2023/08/12 11:48:27;;;;;;;;;;;;;;;26.72;80.32;101382.31;10440086;28;19932;-66
2023/08/12 11:53:29;;;;;;;;;;;;;;;26.61;71.95;101391.59;10456990;28;19925;-66
2023/08/12 11:58:37;;;;;;;;;;;;;;;28.08;70.87;101375.00;10423394;28;20007;-66
2023/08/12 12:03:52;;;;;;;;;;;;;;;27.10;69.17;101383.16;10457362;28;19925;-66
2023/08/12 12:08:55;;;;;;;;;;;;;;;27.05;69.37;101386.38;10439521;28;19971;-66
2023/08/12 12:14:00;;;;;;;;;;;;;;;26.88;67.04;101392.91;10456507;28;20363;-69
2023/08/12 12:19:03;;;;;;;;;;;;;;;26.23;71.07;101389.66;10457083;28;19925;-67
2023/08/12 12:24:06;;;;;;;;;;;;;;;27.32;63.65;101391.34;10457047;28;19925;-68
2023/08/12 12:29:11;;;;;;;;;;;;;;;25.98;65.04;101399.69;10422310;28;19947;-68
2023/08/12 12:34:14;;;;;;;;;;;;;;;25.20;65.35;101406.56;10456435;28;20008;-68
2023/08/12 12:39:17;;;;;;;;;;;;;;;25.69;66.30;101416.41;10459793;28;20016;-72
2023/08/12 12:44:19;;;;;;;;;;;;;;;26.32;64.31;101406.56;10464629;28;19931;-70
2023/08/12 12:49:21;;;;;;;;;;;;;;;26.76;66.05;101410.47;10463878;28;19924;-70
2023/08/12 12:54:24;;;;;;;;;;;;;;;27.09;60.77;101418.28;10464285;28;19931;-69
2023/08/12 12:59:26;;;;;;;;;;;;;;;26.75;63.31;101420.41;10463286;28;19924;-69
2023/08/12 13:04:28;;;;;;;;;;;;;;;25.42;70.15;101414.94;10463947;28;19963;-69
2023/08/12 13:09:31;;;;;;;;;;;;;;;25.90;66.39;101415.81;10463548;28;19931;-69
2023/08/12 13:14:33;;;;;;;;;;;;;;;25.86;68.04;101411.81;10463605;28;19944;-68
2023/08/12 13:19:35;;;;;;;;;;;;;;;26.30;66.52;101406.72;10463255;28;19929;-69
2023/08/12 13:24:38;;;;;;;;;;;;;;;26.48;63.72;101413.69;10463099;28;19925;-69
2023/08/12 13:29:40;;;;;;;;;;;;;;;26.04;64.14;101420.47;10462195;28;19925;-68
2023/08/12 13:34:46;;;;;;;;;;;;;;;27.31;61.77;101419.25;10462718;28;19925;-68
2023/08/12 13:39:48;;;;;;;;;;;;;;;26.78;60.68;101429.94;10462039;28;19925;-69
2023/08/12 13:44:50;;;;;;;;;;;;;;;28.06;58.19;101430.84;10461722;28;20287;-69
2023/08/12 13:49:52;;;;;;;;;;;;;;;28.06;57.58;101420.09;10461858;28;19925;-69
2023/08/12 13:54:55;;;;;;;;;;;;;;;28.90;54.48;101435.72;10461313;28;20458;-69
2023/08/12 13:59:57;;;;;;;;;;;;;;;27.15;56.42;101439.03;10461642;28;19925;-69
2023/08/12 14:04:59;;;;;;;;;;;;;;;28.11;51.93;101439.19;10443786;28;19925;-69
2023/08/12 14:10:02;;;;;;;;;;;;;;;27.45;56.55;101441.81;10460529;28;20372;-67
2023/08/12 14:15:05;;;;;;;;;;;;;;;28.01;53.80;101431.44;10461132;28;20015;-68
2023/08/12 14:20:10;;;;;;;;;;;;;;;27.27;53.86;101442.09;10443297;28;20115;-68
2023/08/12 14:25:12;;;;;;;;;;;;;;;29.25;50.56;101439.34;10460147;28;20375;-69
2023/08/12 14:30:17;;;;;;;;;;;;;;;30.16;49.70;101438.41;10460563;28;20098;-68
2023/08/12 14:35:19;;;;;;;;;;;;;;;28.10;53.91;101434.84;10460366;28;19925;-68
2023/08/12 14:40:22;;;;;;;;;;;;;;;29.55;50.55;101439.09;10460078;28;19932;-66
2023/08/12 14:45:24;;;;;;;;;;;;;;;29.58;49.40;101427.91;10459270;28;20378;-66
2023/08/12 14:50:26;;;;;;;;;;;;;;;28.37;48.67;101427.09;10459038;28;19996;-66
2023/08/12 14:55:29;;;;;;;;;;;;;;;28.28;48.95;101435.28;10459530;28;19925;-65
2023/08/12 15:00:33;;;;;;;;;;;;;;;28.08;48.65;101437.72;10458743;28;19925;-66
2023/08/12 15:05:35;;;;;;;;;;;;;;;29.58;48.82;101440.59;10458542;28;19935;-65
2023/08/12 15:10:38;;;;;;;;;;;;;;;28.38;49.00;101437.66;10458864;28;19925;-66
2023/08/12 15:15:40;;;;;;;;;;;;;;;28.41;46.46;101439.13;10459249;28;20003;-66
2023/08/12 15:20:42;;;;;;;;;;;;;;;29.25;48.22;101439.34;10457991;28;20283;-66
2023/08/12 15:25:45;;;;;;;;;;;;;;;28.15;47.25;101432.41;10440188;28;19928;-65
2023/08/12 15:30:48;;;;;;;;;;;;;;;28.46;47.92;101425.91;10458183;28;20015;-66
2023/08/12 15:35:50;;;;;;;;;;;;;;;28.55;47.71;101427.47;10441016;28;19928;-65
2023/08/12 15:40:52;;;;;;;;;;;;;;;28.75;47.72;101427.72;10457268;28;20447;-65
2023/08/12 15:45:54;;;;;;;;;;;;;;;28.42;50.54;101430.03;10457023;28;19924;-66
2023/08/12 15:50:58;;;;;;;;;;;;;;;28.32;49.00;101433.03;10457570;28;19967;-65
2023/08/12 15:56:00;;;;;;;;;;;;;;;26.63;54.77;101436.09;10457523;28;20003;-65
2023/08/12 16:01:03;;;;;;;;;;;;;;;26.31;51.80;101429.88;10457367;28;20008;-65
2023/08/12 16:06:05;;;;;;;;;;;;;;;26.22;55.54;101438.97;10457326;28;19932;-65
2023/08/12 16:11:08;;;;;;;;;;;;;;;25.46;57.58;101432.38;10457101;28;19983;-65
2023/08/12 16:16:10;;;;;;;;;;;;;;;25.30;57.43;101435.91;10463007;28;20273;-66
2023/08/12 16:21:12;;;;;;;;;;;;;;;24.72;61.29;101441.22;10465014;28;19925;-65
2023/08/12 16:26:14;;;;;;;;;;;;;;;24.30;64.57;101431.41;10465531;28;19924;-65
2023/08/12 16:31:17;;;;;;;;;;;;;;;23.97;64.68;101431.28;10465209;28;19931;-66
2023/08/12 16:36:19;;;;;;;;;;;;;;;24.08;64.77;101436.34;10464515;28;20277;-66
2023/08/12 16:41:21;;;;;;;;;;;;;;;23.78;66.35;101436.88;10464212;28;19925;-66
2023/08/12 16:46:23;;;;;;;;;;;;;;;24.05;65.14;101438.53;10463841;28;19967;-66
2023/08/12 16:51:26;;;;;;;;;;;;;;;23.84;64.75;101441.59;10464408;28;19935;-66
2023/08/12 16:56:28;;;;;;;;;;;;;;;23.85;64.90;101443.28;10464317;28;20015;-66
2023/08/12 17:01:31;;;;;;;;;;;;;;;24.62;63.38;101443.22;10446321;28;19978;-66
2023/08/12 17:06:33;;;;;;;;;;;;;;;24.56;62.57;101441.19;10463535;28;19931;-66
2023/08/12 17:11:36;;;;;;;;;;;;;;;23.93;65.06;101440.66;10446223;28;19962;-66
2023/08/12 17:16:38;;;;;;;;;;;;;;;24.07;65.42;101447.22;10463538;28;19931;-66
2023/08/12 17:21:40;;;;;;;;;;;;;;;23.29;68.71;101443.56;10445559;28;20378;-66
2023/08/12 17:26:43;;;;;;;;;;;;;;;23.49;69.24;101449.56;10444303;28;20375;-66
2023/08/12 17:31:45;;;;;;;;;;;;;;;23.65;67.96;101454.16;10445089;28;19924;-66
2023/08/12 17:36:47;;;;;;;;;;;;;;;23.79;67.29;101450.09;10462723;28;19925;-66
2023/08/12 17:41:50;;;;;;;;;;;;;;;23.53;68.24;101455.44;10461722;28;19925;-67
2023/08/12 17:46:52;;;;;;;;;;;;;;;23.08;69.81;101464.44;10461524;28;20019;-66
2023/08/12 17:51:54;;;;;;;;;;;;;;;22.94;71.66;101469.28;10428095;28;20008;-66
2023/08/12 17:56:56;;;;;;;;;;;;;;;22.87;72.55;101465.56;10461283;28;20016;-66
2023/08/12 18:01:59;;;;;;;;;;;;;;;22.38;76.00;101473.06;10461156;28;20290;-66
2023/08/12 18:07:01;;;;;;;;;;;;;;;22.03;77.73;101475.44;10461508;28;19925;-65
2023/08/12 18:12:03;;;;;;;;;;;;;;;21.50;86.53;101484.84;10461330;28;20008;-65
2023/08/12 18:17:05;;;;;;;;;;;;;;;21.89;83.85;101476.75;10460555;28;19960;-65
2023/08/12 18:22:08;;;;;;;;;;;;;;;21.45;85.14;101486.22;10460387;28;20387;-66
2023/08/12 18:27:10;;;;;;;;;;;;;;;21.65;83.96;101493.25;10460714;28;19931;-66
2023/08/12 18:32:12;;;;;;;;;;;;;;;21.12;87.46;101507.84;10442971;28;20020;-66
2023/08/12 18:37:15;;;;;;;;;;;;;;;21.11;87.73;101507.97;10458834;28;19947;-65
2023/08/12 18:42:19;;;;;;;;;;;;;;;20.70;91.76;101512.56;10459506;28;20213;-66
2023/08/12 18:47:21;;;;;;;;;;;;;;;20.55;94.79;101510.25;10459256;28;19924;-66
2023/08/12 18:52:23;;;;;;;;;;;;;;;20.37;98.12;101525.16;10459742;28;19931;-66
2023/08/12 18:57:27;;;;;;;;;;;;;;;20.11;100.00;101527.44;10458910;28;20285;-66
2023/08/12 19:02:29;;;;;;;;;;;;;;;20.05;100.00;101534.13;10459398;28;19931;-66
2023/08/12 19:07:31;;;;;;;;;;;;;;;19.77;100.00;101532.97;10458425;28;20326;-66
2023/08/12 19:12:34;;;;;;;;;;;;;;;19.75;100.00;101533.09;10441344;28;19925;-66
2023/08/12 19:17:36;;;;;;;;;;;;;;;19.58;100.00;101542.47;10458142;28;20283;-66
2023/08/12 19:22:38;;;;;;;;;;;;;;;19.38;100.00;101552.09;10457992;28;20326;-66
2023/08/12 19:27:41;;;;;;;;;;;;;;;19.33;100.00;101545.47;10457696;28;20265;-66
2023/08/12 19:32:49;;;;;;;;;;;;;;;19.45;100.00;101561.25;10458244;28;19932;-66
2023/08/12 19:37:53;;;;;;;;;;;;;;;19.33;100.00;101559.59;10440072;28;19972;-66
2023/08/12 19:42:56;;;;;;;;;;;;;;;19.22;100.00;101564.97;10457091;28;19935;-66
2023/08/12 19:47:58;;;;;;;;;;;;;;;18.99;100.00;101577.44;10456874;28;19931;-66
2023/08/12 19:53:00;;;;;;;;;;;;;;;18.87;100.00;101581.94;10440028;28;19925;-66
2023/08/12 19:58:03;;;;;;;;;;;;;;;19.08;100.00;101580.19;10456937;28;19924;-66
2023/08/12 20:03:05;;;;;;;;;;;;;;;18.89;100.00;101587.94;10456846;28;19932;-66
2023/08/12 20:08:07;;;;;;;;;;;;;;;18.74;100.00;101589.97;10439589;28;19975;-66
2023/08/12 20:13:10;;;;;;;;;;;;;;;18.67;100.00;101591.44;10457286;28;20011;-66
2023/08/12 20:18:12;;;;;;;;;;;;;;;18.79;100.00;101586.97;10457118;28;19999;-66
2023/08/12 20:23:14;;;;;;;;;;;;;;;18.54;100.00;101587.13;10457063;28;19964;-66
2023/08/12 20:28:16;;;;;;;;;;;;;;;18.37;100.00;101583.13;10456761;28;20322;-66
2023/08/12 20:33:19;;;;;;;;;;;;;;;18.46;100.00;101589.53;10457207;28;19937;-66
2023/08/12 20:38:21;;;;;;;;;;;;;;;18.42;100.00;101585.41;10456788;28;19931;-66
2023/08/12 20:43:24;;;;;;;;;;;;;;;18.44;100.00;101582.63;10456507;28;19925;-66
2023/08/12 20:48:26;;;;;;;;;;;;;;;18.27;100.00;101579.50;10455725;28;20281;-66
2023/08/12 20:53:30;;;;;;;;;;;;;;;18.21;100.00;101579.97;10456258;28;19975;-66
2023/08/12 20:58:33;;;;;;;;;;;;;;;18.15;100.00;101588.41;10455962;28;20299;-66
2023/08/12 21:03:35;;;;;;;;;;;;;;;18.10;100.00;101591.41;10464521;28;20015;-66
2023/08/12 21:08:37;;;;;;;;;;;;;;;17.90;100.00;101592.06;10463812;28;20019;-66
2023/08/12 21:13:39;;;;;;;;;;;;;;;17.75;100.00;101594.91;10462988;28;19933;-66
2023/08/12 21:18:42;;;;;;;;;;;;;;;17.81;100.00;101594.44;10463442;28;19931;-66
2023/08/12 21:23:44;;;;;;;;;;;;;;;17.66;100.00;101600.03;10463283;28;19925;-66
2023/08/12 21:28:46;;;;;;;;;;;;;;;17.72;100.00;101602.22;10462370;28;19983;-65
2023/08/12 21:33:49;;;;;;;;;;;;;;;17.61;100.00;101603.88;10462563;28;20358;-66
2023/08/12 21:38:51;;;;;;;;;;;;;;;17.48;100.00;101612.84;10462605;28;19925;-66
2023/08/12 21:43:53;;;;;;;;;;;;;;;17.42;100.00;101603.56;10461767;28;20416;-66
2023/08/12 21:48:55;;;;;;;;;;;;;;;17.40;100.00;101602.78;10462195;28;20020;-66
2023/08/12 21:53:58;;;;;;;;;;;;;;;17.34;100.00;101601.47;10462115;28;19925;-66
2023/08/12 21:59:00;;;;;;;;;;;;;;;17.46;100.00;101600.53;10461921;28;19925;-66
2023/08/12 22:04:02;;;;;;;;;;;;;;;17.31;100.00;101606.13;10461068;28;20055;-66
2023/08/12 22:09:05;;;;;;;;;;;;;;;17.25;100.00;101610.09;10461473;28;19925;-66
2023/08/12 22:14:07;;;;;;;;;;;;;;;17.21;100.00;101606.78;10442966;28;20403;-66
2023/08/12 22:19:09;;;;;;;;;;;;;;;17.02;100.00;101602.00;10461158;28;19925;-66
2023/08/12 22:24:11;;;;;;;;;;;;;;;17.16;100.00;101600.16;10460937;28;19932;-66
2023/08/12 22:29:18;;;;;;;;;;;;;;;16.97;100.00;101601.47;10460058;28;20303;-66
2023/08/12 22:34:21;;;;;;;;;;;;;;;16.96;100.00;101602.44;10460571;28;19924;-66
2023/08/12 22:39:24;;;;;;;;;;;;;;;16.89;100.00;101599.41;10460344;28;19959;-66
2023/08/12 22:44:26;;;;;;;;;;;;;;;17.06;100.00;101598.19;10459593;28;19935;-66
2023/08/12 22:49:28;;;;;;;;;;;;;;;17.01;100.00;101596.81;10460325;28;19925;-66
2023/08/12 22:54:31;;;;;;;;;;;;;;;16.88;100.00;101602.16;10459053;28;20368;-66
2023/08/12 22:59:33;;;;;;;;;;;;;;;16.86;100.00;101593.47;10495058;22;20015;-69
2023/08/12 23:04:35;;;;;;;;;;;;;;;17.03;100.00;101587.81;10500720;28;20015;-69
2023/08/12 23:09:37;;;;;;;;;;;;;;;16.87;100.00;101595.16;10499773;28;20326;-69
2023/08/12 23:14:40;;;;;;;;;;;;;;;16.90;100.00;101593.13;10500328;28;19924;-70
2023/08/12 23:19:42;;;;;;;;;;;;;;;16.85;100.00;101597.09;10500075;28;19924;-69
2023/08/12 23:24:44;;;;;;;;;;;;;;;16.72;100.00;101605.00;10498923;28;20389;-69
2023/08/12 23:29:46;;;;;;;;;;;;;;;16.92;100.00;101606.25;10499739;28;20020;-69
2023/08/12 23:34:48;;;;;;;;;;;;;;;16.99;100.00;101596.91;10499040;28;20310;-70
2023/08/12 23:39:51;;;;;;;;;;;;;;;17.02;100.00;101606.44;10499549;28;19959;-70
2023/08/12 23:44:53;;;;;;;;;;;;;;;17.21;96.69;101598.00;10498786;28;20438;-69
2023/08/12 23:49:55;;;;;;;;;;;;;;;17.55;96.70;101603.47;10498173;28;20014;-69
2023/08/12 23:54:57;;;;;;;;;;;;;;;17.72;94.14;101604.88;10497829;28;20367;-69
